Time;durP1;ratioP1;P1;durP2;ratioP2;P2;SDS_P1;SDS_P2;PMS_P1;PMS_P2;Temp;Humidity;BMP_temperature;BMP_pressure;BME280_temperature;BME280_humidity;BME280_pressure;Samples;Min_cycle;Max_cycle;Signal;HPM_P1;HPM_P2
2023/12/15 00:01:52;;;;;;;6.00;5.17;;;6.50;99.90;;;;;;5034886;28;20244;-89
2023/12/15 00:04:18;;;;;;;5.60;4.27;;;6.60;99.90;;;;;;5036916;28;20217;-89
2023/12/15 00:06:43;;;;;;;7.27;5.00;;;6.70;99.90;;;;;;5034506;28;20565;-89
2023/12/15 00:09:09;;;;;;;5.77;4.30;;;6.50;99.90;;;;;;5042299;28;20219;-89
2023/12/15 00:11:34;;;;;;;6.30;4.30;;;7.10;99.90;;;;;;5056628;28;20180;-89
2023/12/15 00:14:00;;;;;;;6.67;4.80;;;7.10;99.90;;;;;;5032166;28;20670;-89
2023/12/15 00:16:25;;;;;;;7.13;4.97;;;6.60;99.90;;;;;;5032027;28;20192;-89
2023/12/15 00:18:51;;;;;;;9.10;4.60;;;6.70;99.90;;;;;;5032429;28;20174;-88
2023/12/15 00:21:16;;;;;;;7.10;4.77;;;7.00;99.90;;;;;;5032553;28;20276;-88
2023/12/15 00:23:42;;;;;;;5.37;4.40;;;6.70;99.90;;;;;;5037231;28;20207;-88
2023/12/15 00:26:08;;;;;;;6.00;4.53;;;7.00;99.90;;;;;;5035155;28;20205;-89
2023/12/15 00:28:33;;;;;;;6.13;4.47;;;6.60;99.90;;;;;;5035615;28;20555;-89
2023/12/15 00:30:59;;;;;;;4.80;3.73;;;6.30;99.90;;;;;;5045637;28;20176;-89
2023/12/15 00:33:25;;;;;;;4.72;4.18;;;6.30;99.90;;;;;;5056416;28;20194;-88
2023/12/15 00:35:50;;;;;;;4.60;3.93;;;6.70;99.90;;;;;;5057120;28;20216;-88
2023/12/15 00:38:16;;;;;;;5.27;3.57;;;6.80;99.90;;;;;;5035621;28;20272;-88
2023/12/15 00:40:41;;;;;;;5.80;4.00;;;6.80;99.90;;;;;;5039831;28;20181;-89
2023/12/15 00:43:07;;;;;;;6.57;4.10;;;6.40;99.90;;;;;;5033116;28;20194;-88
2023/12/15 00:45:32;;;;;;;4.23;3.83;;;6.60;99.90;;;;;;5057388;28;20693;-88
2023/12/15 00:47:58;;;;;;;3.77;3.47;;;6.80;99.90;;;;;;5034968;28;20229;-88
2023/12/15 00:50:24;;;;;;;4.37;3.43;;;6.70;99.90;;;;;;5034936;28;20196;-89
2023/12/15 00:52:49;;;;;;;3.83;3.30;;;6.40;99.90;;;;;;5031616;28;20182;-88
2023/12/15 00:55:15;;;;;;;5.57;3.47;;;6.00;99.90;;;;;;5036454;28;20205;-88
2023/12/15 00:57:40;;;;;;;7.70;5.20;;;6.60;99.90;;;;;;5032325;28;20646;-88
2023/12/15 01:00:06;;;;;;;4.50;3.90;;;6.60;99.90;;;;;;5053113;28;20182;-88
2023/12/15 01:02:32;;;;;;;3.70;3.08;;;6.30;99.90;;;;;;5056205;28;20201;-88
2023/12/15 01:04:57;;;;;;;4.07;3.03;;;6.10;99.90;;;;;;5045600;28;20252;-89
2023/12/15 01:07:23;;;;;;;4.63;3.83;;;;;;;;;;5034743;28;20185;-88
2023/12/15 01:09:49;;;;;;;3.90;3.17;;;6.30;99.90;;;;;;5044676;28;20179;-88
2023/12/15 01:12:14;;;;;;;6.73;3.90;;;6.40;99.90;;;;;;5059761;28;20511;-88
2023/12/15 01:14:40;;;;;;;7.27;4.77;;;6.70;99.90;;;;;;5040575;28;20229;-88
2023/12/15 01:17:05;;;;;;;4.60;3.70;;;6.10;99.90;;;;;;5037995;28;20563;-89
2023/12/15 01:19:31;;;;;;;5.97;4.40;;;6.50;99.90;;;;;;5032623;28;20713;-88
2023/12/15 01:21:57;;;;;;;4.28;3.08;;;6.20;99.90;;;;;;5034839;28;20182;-88
2023/12/15 01:24:22;;;;;;;4.13;3.47;;;6.10;99.90;;;;;;5030675;28;20202;-88
2023/12/15 01:26:48;;;;;;;6.13;4.23;;;6.10;99.90;;;;;;5032287;28;20276;-89
2023/12/15 01:29:13;;;;;;;4.30;3.10;;;6.40;99.90;;;;;;5029793;28;20204;-89
2023/12/15 01:31:39;;;;;;;5.87;3.80;;;6.40;99.90;;;;;;5041297;28;20657;-89
2023/12/15 01:34:04;;;;;;;4.10;3.40;;;6.10;99.90;;;;;;5046674;28;20205;-88
2023/12/15 01:36:30;;;;;;;3.90;3.37;;;6.10;99.90;;;;;;5048115;28;20186;-88
2023/12/15 01:38:56;;;;;;;4.80;3.87;;;6.10;99.90;;;;;;5049730;28;20193;-88
2023/12/15 01:41:21;;;;;;;6.82;4.68;;;6.60;99.90;;;;;;5035677;28;20196;-88
2023/12/15 01:43:47;;;;;;;4.70;3.10;;;6.30;99.90;;;;;;5032881;28;20201;-88
2023/12/15 01:46:12;;;;;;;6.00;4.37;;;6.70;99.90;;;;;;5050144;28;20209;-89
2023/12/15 01:48:39;;;;;;;6.00;4.27;;;6.40;99.90;;;;;;5049611;28;20552;-88
2023/12/15 01:51:05;;;;;;;6.13;4.82;;;6.60;99.90;;;;;;5033309;28;20264;-89
2023/12/15 01:53:31;;;;;;;7.30;4.97;;;6.10;99.90;;;;;;5035252;28;20800;-88
2023/12/15 01:55:56;;;;;;;6.83;4.63;;;6.20;99.90;;;;;;5038042;28;20448;-88
2023/12/15 01:58:22;;;;;;;7.80;4.50;;;6.10;99.90;;;;;;5035189;28;20530;-88
2023/12/15 02:00:47;;;;;;;6.50;5.13;;;5.90;99.90;;;;;;5031649;28;20193;-89
2023/12/15 02:03:13;;;;;;;5.97;4.83;;;6.00;99.90;;;;;;5031279;28;20288;-88
2023/12/15 02:05:38;;;;;;;7.60;5.83;;;6.20;99.90;;;;;;5027079;28;20464;-88
2023/12/15 02:08:04;;;;;;;7.63;5.87;;;6.50;99.90;;;;;;5031624;28;20188;-88
2023/12/15 02:10:30;;;;;;;5.60;4.60;;;6.10;99.90;;;;;;5031062;28;20189;-88
2023/12/15 02:12:55;;;;;;;6.13;4.40;;;6.20;99.90;;;;;;5029585;28;20214;-88
2023/12/15 02:15:21;;;;;;;6.30;4.23;;;5.80;99.90;;;;;;5034874;28;20205;-88
2023/12/15 02:17:46;;;;;;;6.13;5.50;;;5.90;99.90;;;;;;5032909;28;20189;-88
2023/12/15 02:20:12;;;;;;;8.23;5.60;;;6.30;99.90;;;;;;5036316;28;20203;-88
2023/12/15 02:22:37;;;;;;;6.57;5.07;;;5.60;99.90;;;;;;5032373;28;20688;-88
2023/12/15 02:25:03;;;;;;;7.37;5.63;;;5.80;99.90;;;;;;5036728;28;20243;-88
2023/12/15 02:27:28;;;;;;;6.80;5.17;;;5.50;99.90;;;;;;5052597;28;20205;-88
2023/12/15 02:29:54;;;;;;;7.37;5.87;;;5.40;99.90;;;;;;5030388;28;20440;-88
2023/12/15 02:32:19;;;;;;;6.37;5.03;;;5.50;99.90;;;;;;5031787;28;20634;-88
2023/12/15 02:34:45;;;;;;;7.93;4.67;;;5.40;99.90;;;;;;5032766;28;20725;-88
2023/12/15 02:37:11;;;;;;;6.50;4.77;;;5.30;99.90;;;;;;5030779;28;20192;-88
2023/12/15 02:39:39;;;;;;;8.63;6.03;;;5.30;99.90;;;;;;5033782;28;20238;-88
2023/12/15 02:42:05;;;;;;;9.43;5.63;;;5.60;99.90;;;;;;5042824;28;20189;-88
2023/12/15 02:44:31;;;;;;;9.47;5.80;;;5.00;99.90;;;;;;5058835;28;20338;-88
2023/12/15 02:46:56;;;;;;;7.07;5.70;;;5.10;99.90;;;;;;5057662;28;20173;-88
2023/12/15 02:49:22;;;;;;;7.80;5.23;;;5.10;99.90;;;;;;5058895;28;20196;-88
2023/12/15 02:51:47;;;;;;;7.20;5.40;;;5.20;99.90;;;;;;5051862;28;20215;-90
2023/12/15 02:54:13;;;;;;;8.80;6.07;;;5.60;99.90;;;;;;5058702;28;20196;-88
2023/12/15 02:56:38;;;;;;;9.90;5.93;;;5.20;99.90;;;;;;5049808;28;20192;-89
2023/12/15 02:59:04;;;;;;;9.03;5.93;;;5.40;99.90;;;;;;5023863;28;20647;-88
2023/12/15 03:01:29;;;;;;;8.27;5.13;;;5.80;99.90;;;;;;5031876;28;20266;-89
2023/12/15 03:03:55;;;;;;;6.90;5.10;;;5.30;99.90;;;;;;5032052;28;20554;-89
2023/12/15 03:06:20;;;;;;;7.83;5.83;;;5.80;99.90;;;;;;5031473;28;20209;-88
2023/12/15 03:08:46;;;;;;;7.73;5.90;;;5.30;99.90;;;;;;5027107;28;20189;-88
2023/12/15 03:11:11;;;;;;;9.87;5.90;;;5.30;99.90;;;;;;5030189;28;20238;-88
2023/12/15 03:13:38;;;;;;;9.20;6.20;;;5.20;99.90;;;;;;5032243;28;20296;-89
2023/12/15 03:16:11;;;;;;;9.85;6.22;;;5.50;99.90;;;;;;5030087;28;20817;-88
2023/12/15 03:18:37;;;;;;;8.80;5.70;;;5.30;99.90;;;;;;5039498;28;20189;-88
2023/12/15 03:21:03;;;;;;;10.57;5.68;;;5.40;99.90;;;;;;5033277;28;20215;-88
2023/12/15 03:23:28;;;;;;;8.23;5.20;;;5.30;99.90;;;;;;5038149;28;20216;-88
2023/12/15 03:25:54;;;;;;;8.37;5.80;;;5.50;99.90;;;;;;5037491;28;20221;-88
2023/12/15 03:28:20;;;;;;;9.90;6.20;;;5.40;99.90;;;;;;5034532;28;20189;-88
2023/12/15 03:30:45;;;;;;;7.20;5.33;;;5.90;99.90;;;;;;5038141;28;20178;-89
2023/12/15 03:33:11;;;;;;;8.23;4.70;;;5.50;99.90;;;;;;5039892;28;20189;-89
2023/12/15 03:35:36;;;;;;;7.57;5.23;;;5.50;99.90;;;;;;5038525;28;20224;-88
2023/12/15 03:38:05;;;;;;;7.83;5.40;;;5.60;99.90;;;;;;5036966;28;20189;-88
2023/12/15 03:40:31;;;;;;;7.38;5.40;;;5.30;99.90;;;;;;5056875;28;20173;-89
2023/12/15 03:42:57;;;;;;;7.80;6.10;;;5.30;99.90;;;;;;5059286;28;20193;-88
2023/12/15 03:45:23;;;;;;;6.70;4.80;;;5.20;99.90;;;;;;5056939;28;20201;-88
2023/12/15 03:47:50;;;;;;;8.68;5.80;;;5.20;99.90;;;;;;5061204;28;20184;-88
2023/12/15 03:50:15;;;;;;;7.50;5.05;;;5.70;99.90;;;;;;5052580;28;20178;-88
2023/12/15 03:52:41;;;;;;;7.87;5.70;;;5.40;99.90;;;;;;5054602;28;20271;-88
2023/12/15 03:55:07;;;;;;;6.70;5.17;;;5.50;99.90;;;;;;5035427;28;20211;-89
2023/12/15 03:57:32;;;;;;;9.00;6.15;;;5.70;99.90;;;;;;5047630;28;20189;-89
2023/12/15 03:59:58;;;;;;;9.50;5.90;;;5.80;99.90;;;;;;5032922;28;20195;-88
2023/12/15 04:02:23;;;;;;;7.87;4.97;;;5.90;99.90;;;;;;5057026;28;20232;-88
2023/12/15 04:04:49;;;;;;;8.10;6.10;;;6.00;99.90;;;;;;5050978;28;20228;-88
2023/12/15 04:07:14;;;;;;;7.00;5.07;;;5.50;99.90;;;;;;5027692;28;20194;-88
2023/12/15 04:09:40;;;;;;;7.60;5.60;;;6.00;99.90;;;;;;5034761;28;20553;-88
2023/12/15 04:12:06;;;;;;;6.97;5.53;;;5.50;99.90;;;;;;5039838;28;20185;-88
2023/12/15 04:14:33;;;;;;;6.30;5.03;;;5.60;99.90;;;;;;5034083;28;20228;-88
2023/12/15 04:16:58;;;;;;;8.25;5.40;;;6.10;99.90;;;;;;5027482;28;20185;-89
2023/12/15 04:19:24;;;;;;;8.77;6.10;;;5.80;99.90;;;;;;5033446;28;20185;-88
2023/12/15 04:21:50;;;;;;;7.20;4.40;;;5.60;99.90;;;;;;5034260;28;20184;-88
2023/12/15 04:24:15;;;;;;;8.07;5.83;;;5.70;99.90;;;;;;5036487;28;20690;-88
2023/12/15 04:26:41;;;;;;;8.10;5.33;;;6.00;99.90;;;;;;5027998;28;20205;-88
2023/12/15 04:29:06;;;;;;;10.20;5.90;;;5.70;99.90;;;;;;5030542;28;20214;-88
2023/12/15 04:31:32;;;;;;;8.77;5.53;;;6.00;99.90;;;;;;5038953;28;20268;-88
2023/12/15 04:33:57;;;;;;;7.40;5.47;;;5.40;99.90;;;;;;5031526;28;20201;-88
2023/12/15 04:36:23;;;;;;;7.00;5.20;;;5.50;99.90;;;;;;5032149;28;20181;-88
2023/12/15 04:38:48;;;;;;;7.33;5.10;;;5.50;99.90;;;;;;5042747;28;20181;-88
2023/12/15 04:41:23;;;;;;;7.10;5.13;;;5.90;99.90;;;;;;5054339;28;20181;-88
2023/12/15 04:43:48;;;;;;;7.93;5.32;;;6.20;99.90;;;;;;5046351;28;20706;-88
2023/12/15 04:46:25;;;;;;;6.33;5.30;;;5.90;99.90;;;;;;5031007;28;20213;-88
2023/12/15 04:48:50;;;;;;;7.55;5.97;;;5.70;99.90;;;;;;5034576;28;20187;-88
2023/12/15 04:51:16;;;;;;;8.37;5.93;;;5.60;99.90;;;;;;5053636;28;20634;-88
2023/12/15 04:53:41;;;;;;;7.27;4.83;;;5.60;99.90;;;;;;5055818;28;20460;-88
2023/12/15 04:56:07;;;;;;;7.50;5.63;;;5.60;99.90;;;;;;5036204;28;20566;-88
2023/12/15 04:58:35;;;;;;;6.72;5.55;;;5.50;99.90;;;;;;5026200;28;20705;-88
2023/12/15 05:01:01;;;;;;;7.25;5.47;;;5.80;99.90;;;;;;5030595;28;20186;-88
2023/12/15 05:03:27;;;;;;;8.43;5.67;;;5.60;99.90;;;;;;5032941;28;20189;-88
2023/12/15 05:05:52;;;;;;;7.63;5.87;;;6.10;99.90;;;;;;5027597;28;20214;-88
2023/12/15 05:08:18;;;;;;;8.13;6.90;;;5.80;99.90;;;;;;5034026;28;20197;-88
2023/12/15 05:10:43;;;;;;;7.03;5.00;;;6.20;99.90;;;;;;5033372;28;20170;-88
2023/12/15 05:13:09;;;;;;;9.00;5.83;;;5.80;99.90;;;;;;5027746;28;20268;-88
2023/12/15 05:15:34;;;;;;;6.43;5.47;;;5.80;99.90;;;;;;5030572;28;20209;-88
2023/12/15 05:18:00;;;;;;;6.43;5.10;;;5.60;99.90;;;;;;5032381;28;20178;-88
2023/12/15 05:20:25;;;;;;;6.50;5.33;;;6.10;99.90;;;;;;5034240;28;20692;-88
2023/12/15 05:22:50;;;;;;;7.17;5.33;;;5.90;99.90;;;;;;5032350;28;20193;-88
2023/12/15 05:25:16;;;;;;;7.27;5.17;;;6.00;99.90;;;;;;5043406;28;20201;-88
2023/12/15 05:27:41;;;;;;;9.27;6.00;;;6.10;99.90;;;;;;5056985;28;20419;-89
2023/12/15 05:30:09;;;;;;;8.37;5.83;;;6.00;99.90;;;;;;5046175;28;20181;-88
2023/12/15 05:32:34;;;;;;;6.97;5.03;;;6.00;99.90;;;;;;5033364;28;20186;-88
2023/12/15 05:35:00;;;;;;;8.97;6.43;;;5.90;99.90;;;;;;5033925;28;20211;-88
2023/12/15 05:37:25;;;;;;;6.97;5.73;;;6.00;99.90;;;;;;5036018;28;20579;-89
2023/12/15 05:39:51;;;;;;;9.40;6.60;;;5.90;99.90;;;;;;5030854;28;20195;-89
2023/12/15 05:42:16;;;;;;;10.80;6.00;;;6.00;99.90;;;;;;5035105;28;20267;-88
2023/12/15 05:44:42;;;;;;;8.27;6.07;;;5.80;99.90;;;;;;5035174;28;20213;-88
2023/12/15 05:47:07;;;;;;;6.93;5.80;;;6.20;99.90;;;;;;5031909;28;20190;-88
2023/12/15 05:49:38;;;;;;;9.13;7.37;;;6.00;99.90;;;;;;5032886;28;20211;-88
2023/12/15 05:52:03;;;;;;;7.78;5.80;;;6.30;99.90;;;;;;5031377;28;20654;-88
2023/12/15 05:54:29;;;;;;;9.10;6.80;;;5.90;99.90;;;;;;5030983;28;20296;-88
2023/12/15 05:56:54;;;;;;;8.90;6.57;;;6.20;99.90;;;;;;5034144;28;20414;-88
2023/12/15 05:59:20;;;;;;;10.67;5.83;;;6.40;99.90;;;;;;5031009;28;20197;-89
2023/12/15 06:01:45;;;;;;;9.70;5.87;;;6.00;99.90;;;;;;5033680;28;20274;-88
2023/12/15 06:04:11;;;;;;;7.43;5.73;;;6.00;99.90;;;;;;5054651;28;20205;-88
2023/12/15 06:06:36;;;;;;;8.50;6.50;;;5.90;99.90;;;;;;5031971;28;20216;-89
2023/12/15 06:09:02;;;;;;;7.67;6.23;;;6.00;99.90;;;;;;5033912;28;20638;-88
2023/12/15 06:11:28;;;;;;;7.13;5.80;;;5.90;99.90;;;;;;5032739;28;20193;-88
2023/12/15 06:13:53;;;;;;;8.20;6.07;;;6.10;99.90;;;;;;5025236;28;20213;-88
2023/12/15 06:16:20;;;;;;;8.23;5.90;;;6.20;99.90;;;;;;5031403;28;20224;-88
2023/12/15 06:18:46;;;;;;;9.10;6.32;;;6.20;99.90;;;;;;5032003;28;20190;-89
2023/12/15 06:21:25;;;;;;;11.10;6.30;;;6.40;99.90;;;;;;5040423;28;20729;-88
2023/12/15 06:23:52;;;;;;;13.75;6.65;;;6.30;99.90;;;;;;5028638;28;20208;-88
2023/12/15 06:26:22;;;;;;;11.32;6.57;;;5.90;99.90;;;;;;5020912;28;20209;-88
2023/12/15 06:28:48;;;;;;;7.50;6.20;;;6.30;99.90;;;;;;5029739;28;20261;-88
2023/12/15 06:31:14;;;;;;;8.00;5.75;;;6.30;99.90;;;;;;5030965;28;20178;-88
2023/12/15 06:33:40;;;;;;;11.82;6.55;;;6.00;99.90;;;;;;5028236;28;20222;-88
2023/12/15 06:36:07;;;;;;;8.97;6.77;;;6.00;99.90;;;;;;5036743;28;20201;-88
2023/12/15 06:38:34;;;;;;;8.75;6.60;;;5.90;99.90;;;;;;5044255;28;20416;-89
2023/12/15 06:41:00;;;;;;;8.60;6.57;;;6.30;99.90;;;;;;5042543;28;20185;-89
2023/12/15 06:43:26;;;;;;;9.47;6.83;;;5.90;99.90;;;;;;5041963;28;20173;-89
2023/12/15 06:45:52;;;;;;;9.57;6.60;;;6.10;99.90;;;;;;5074783;28;20442;-89
2023/12/15 06:48:17;;;;;;;9.13;6.50;;;5.80;99.90;;;;;;5070052;28;20278;-89
2023/12/15 06:50:43;;;;;;;8.67;6.13;;;6.00;99.90;;;;;;5035562;28;20178;-89
2023/12/15 06:53:09;;;;;;;11.23;6.70;;;;;;;;;;5040482;28;20537;-90
2023/12/15 06:55:35;;;;;;;14.20;7.00;;;6.10;99.90;;;;;;5035632;28;20204;-89
2023/12/15 06:58:01;;;;;;;7.32;6.32;;;6.00;99.90;;;;;;5041913;28;20909;-90
2023/12/15 07:00:26;;;;;;;7.90;6.20;;;6.00;99.90;;;;;;5055092;28;20216;-89
2023/12/15 07:02:52;;;;;;;8.20;6.30;;;;;;;;;;5023285;28;20194;-90
2023/12/15 07:05:19;;;;;;;8.18;6.45;;;6.00;99.90;;;;;;5037281;28;20597;-89
2023/12/15 07:07:44;;;;;;;10.70;6.33;;;6.00;99.90;;;;;;5037883;28;20317;-89
2023/12/15 07:10:10;;;;;;;8.47;5.53;;;6.40;99.90;;;;;;5034645;28;20173;-89
2023/12/15 07:12:36;;;;;;;7.77;6.97;;;6.90;99.90;;;;;;5041056;28;20273;-90
2023/12/15 07:15:01;;;;;;;7.40;5.60;;;6.30;99.90;;;;;;5036456;28;20292;-89
2023/12/15 07:17:27;;;;;;;8.07;6.23;;;6.10;99.90;;;;;;5037412;28;20208;-89
2023/12/15 07:19:53;;;;;;;9.77;6.10;;;6.50;99.90;;;;;;5037708;28;20196;-88
2023/12/15 07:22:18;;;;;;;7.53;5.57;;;6.00;99.90;;;;;;5038998;28;20459;-88
2023/12/15 07:24:44;;;;;;;7.17;6.43;;;5.90;99.90;;;;;;5039232;28;20483;-88
2023/12/15 07:27:10;;;;;;;7.40;6.23;;;6.00;99.90;;;;;;5058899;28;20189;-89
2023/12/15 07:29:35;;;;;;;9.00;5.97;;;6.10;99.90;;;;;;5032434;28;20192;-88
2023/12/15 07:32:01;;;;;;;8.97;6.40;;;5.90;99.90;;;;;;5042159;28;20181;-89
2023/12/15 07:34:26;;;;;;;6.97;5.80;;;6.30;99.90;;;;;;5038813;28;20213;-89
2023/12/15 07:36:52;;;;;;;9.40;6.27;;;6.30;99.90;;;;;;5037402;28;20235;-89
2023/12/15 07:39:21;;;;;;;7.70;6.90;;;5.80;99.90;;;;;;5037347;28;20267;-89
2023/12/15 07:41:50;;;;;;;9.73;7.57;;;6.30;99.90;;;;;;5038756;28;20208;-89
2023/12/15 07:44:16;;;;;;;8.05;6.30;;;6.10;99.90;;;;;;5047842;28;20205;-89
2023/12/15 07:46:42;;;;;;;11.88;8.48;;;6.50;99.90;;;;;;5034944;28;20221;-89
2023/12/15 07:49:09;;;;;;;9.43;6.72;;;6.60;99.90;;;;;;5033452;28;20186;-89
2023/12/15 07:51:35;;;;;;;8.95;6.93;;;6.00;99.90;;;;;;5036070;28;20228;-89
2023/12/15 07:54:01;;;;;;;10.47;8.10;;;6.30;99.90;;;;;;5035962;28;20202;-89
2023/12/15 07:56:28;;;;;;;11.43;8.00;;;6.20;99.90;;;;;;5035974;28;20185;-89
2023/12/15 07:58:55;;;;;;;7.13;6.43;;;6.00;99.90;;;;;;5055650;28;20191;-90
2023/12/15 08:01:22;;;;;;;6.82;6.13;;;6.30;99.90;;;;;;5050016;28;20197;-89
2023/12/15 08:03:50;;;;;;;8.30;6.25;;;6.60;99.90;;;;;;5064714;28;20208;-89
2023/12/15 08:06:16;;;;;;;7.45;6.07;;;6.40;99.90;;;;;;5036531;28;20223;-89
2023/12/15 08:08:43;;;;;;;9.43;6.53;;;6.20;99.90;;;;;;5037163;28;20185;-89
2023/12/15 08:11:10;;;;;;;8.93;7.05;;;6.40;99.90;;;;;;5037711;28;20185;-89
2023/12/15 08:13:36;;;;;;;9.40;6.97;;;6.40;99.90;;;;;;5040288;28;20201;-89
2023/12/15 08:16:03;;;;;;;8.13;6.35;;;6.60;99.90;;;;;;5041202;28;20182;-89
2023/12/15 08:18:29;;;;;;;9.23;7.05;;;6.50;99.90;;;;;;5035734;28;20220;-89
2023/12/15 08:20:54;;;;;;;7.83;6.47;;;6.60;99.90;;;;;;5032686;28;20178;-90
2023/12/15 08:23:20;;;;;;;9.40;7.50;;;6.60;99.90;;;;;;5035602;28;20444;-89
2023/12/15 08:25:45;;;;;;;8.53;7.00;;;6.80;99.90;;;;;;5037571;28;20244;-89
2023/12/15 08:28:11;;;;;;;8.87;7.97;;;6.60;99.90;;;;;;5030925;28;20190;-89
2023/12/15 08:30:37;;;;;;;8.67;6.60;;;6.50;99.90;;;;;;5039599;28;20190;-89
2023/12/15 08:33:03;;;;;;;9.75;8.10;;;6.70;99.90;;;;;;5062329;28;20717;-89
2023/12/15 08:35:28;;;;;;;11.57;7.57;;;7.00;99.90;;;;;;5053923;28;20206;-90
2023/12/15 08:37:57;;;;;;;11.33;7.60;;;6.60;99.90;;;;;;5045016;28;20190;-89
2023/12/15 08:40:23;;;;;;;8.93;7.68;;;7.10;99.90;;;;;;5047085;28;20190;-89
2023/12/15 08:42:49;;;;;;;8.90;7.37;;;6.60;99.90;;;;;;5038621;28;20191;-89
2023/12/15 08:45:15;;;;;;;9.93;7.83;;;6.70;99.90;;;;;;5033043;28;20446;-89
2023/12/15 08:47:41;;;;;;;9.97;8.03;;;7.00;99.90;;;;;;5037381;28;20460;-89
2023/12/15 08:50:06;;;;;;;8.50;7.60;;;7.30;99.90;;;;;;5033249;28;20181;-89
2023/12/15 08:52:32;;;;;;;7.90;6.63;;;7.30;99.90;;;;;;5035068;28;20432;-89
2023/12/15 08:54:57;;;;;;;7.80;7.00;;;7.50;99.90;;;;;;5039183;28;20241;-88
2023/12/15 08:57:23;;;;;;;16.80;7.80;;;7.00;99.90;;;;;;5035304;28;20174;-89
2023/12/15 08:59:49;;;;;;;8.87;7.77;;;7.50;99.90;;;;;;5019328;28;20221;-90
2023/12/15 09:02:14;;;;;;;9.03;7.50;;;7.30;99.90;;;;;;5023413;28;20198;-90
2023/12/15 09:04:40;;;;;;;9.83;8.00;;;7.30;99.90;;;;;;5041254;28;20212;-89
2023/12/15 09:07:08;;;;;;;15.07;10.17;;;7.50;99.90;;;;;;5042201;28;20185;-89
2023/12/15 09:09:34;;;;;;;9.13;7.78;;;7.30;99.90;;;;;;5038070;28;20225;-89
2023/12/15 09:12:00;;;;;;;8.50;6.80;;;7.50;99.90;;;;;;5032186;28;20181;-89
2023/12/15 09:14:28;;;;;;;10.27;8.20;;;7.30;99.90;;;;;;5053658;28;20256;-90
2023/12/15 09:16:55;;;;;;;8.10;6.50;;;6.90;99.90;;;;;;5039237;28;20273;-90
2023/12/15 09:19:21;;;;;;;8.80;6.43;;;7.50;99.90;;;;;;5038361;28;20281;-90
2023/12/15 09:21:46;;;;;;;10.38;7.63;;;7.90;99.90;;;;;;5045568;28;20213;-89
2023/12/15 09:24:14;;;;;;;8.03;7.20;;;7.60;99.90;;;;;;5037006;28;20205;-90
2023/12/15 09:26:42;;;;;;;9.65;8.00;;;7.90;99.90;;;;;;5039255;28;20463;-89
2023/12/15 09:29:11;;;;;;;10.85;7.28;;;8.10;99.90;;;;;;5037970;28;20327;-89
2023/12/15 09:31:37;;;;;;;10.35;7.85;;;7.70;99.90;;;;;;5038106;28;20192;-90
2023/12/15 09:34:03;;;;;;;8.48;7.30;;;8.20;99.90;;;;;;5038248;28;20228;-90
2023/12/15 09:36:29;;;;;;;8.52;6.93;;;7.70;99.90;;;;;;5051501;28;20169;-90
2023/12/15 09:38:55;;;;;;;8.17;6.87;;;8.20;99.90;;;;;;5042866;28;20177;-90
2023/12/15 09:41:21;;;;;;;8.23;7.40;;;8.30;99.90;;;;;;5039334;28;20186;-90
2023/12/15 09:43:47;;;;;;;8.30;6.80;;;8.00;99.90;;;;;;5037787;28;20261;-90
2023/12/15 09:46:13;;;;;;;7.40;6.60;;;8.20;99.90;;;;;;5038265;28;20228;-89
2023/12/15 09:48:38;;;;;;;7.30;6.60;;;8.40;99.90;;;;;;5041281;28;20574;-89
2023/12/15 09:51:12;;;;;;;8.00;7.20;;;8.80;99.90;;;;;;5056552;28;20185;-89
2023/12/15 09:53:38;;;;;;;8.10;6.65;;;8.70;99.90;;;;;;5055050;28;20266;-89
2023/12/15 09:56:05;;;;;;;8.05;7.05;;;8.70;99.90;;;;;;5042103;28;20268;-89
2023/12/15 09:58:31;;;;;;;7.05;6.25;;;8.60;99.90;;;;;;5036374;28;20174;-90
2023/12/15 10:00:56;;;;;;;8.70;7.10;;;8.50;99.90;;;;;;5036823;28;20673;-89
2023/12/15 10:03:23;;;;;;;7.40;6.60;;;8.60;99.90;;;;;;5036597;28;20269;-90
2023/12/15 10:05:48;;;;;;;8.43;6.30;;;8.90;99.90;;;;;;5035613;28;20299;-90
2023/12/15 10:08:14;;;;;;;9.53;7.03;;;8.60;99.90;;;;;;5058185;28;20220;-89
2023/12/15 10:10:39;;;;;;;7.10;6.40;;;9.10;99.90;;;;;;5057371;28;20267;-89
2023/12/15 10:13:05;;;;;;;12.30;8.70;;;8.80;99.90;;;;;;5043071;28;20612;-90
2023/12/15 10:15:31;;;;;;;6.93;6.23;;;9.00;99.90;;;;;;5038478;28;20209;-90
2023/12/15 10:17:57;;;;;;;8.23;6.63;;;9.00;99.90;;;;;;5043391;28;20199;-90
2023/12/15 10:20:23;;;;;;;8.07;6.68;;;9.60;99.90;;;;;;5038079;28;20244;-90
2023/12/15 10:23:03;;;;;;;6.82;6.15;;;9.20;99.90;;;;;;5035581;28;20257;-91
2023/12/15 10:25:29;;;;;;;7.88;6.43;;;9.40;99.90;;;;;;5050542;28;20222;-90
2023/12/15 10:27:55;;;;;;;6.95;6.05;;;9.50;99.90;;;;;;5034983;28;20183;-90
2023/12/15 10:30:20;;;;;;;8.10;6.73;;;10.20;99.90;;;;;;5038376;28;20184;-90
2023/12/15 10:32:46;;;;;;;7.10;6.30;;;9.60;99.90;;;;;;5044548;28;20233;-90
2023/12/15 10:35:13;;;;;;;9.33;7.00;;;9.50;99.90;;;;;;5069210;28;20537;-90
2023/12/15 10:37:41;;;;;;;8.30;7.00;;;9.60;99.90;;;;;;5041890;28;20504;-90
2023/12/15 10:40:07;;;;;;;7.25;6.40;;;10.00;99.90;;;;;;5061927;28;20184;-90
2023/12/15 10:42:34;;;;;;;7.00;6.20;;;9.90;99.90;;;;;;5062431;28;20192;-91
2023/12/15 10:45:02;;;;;;;9.15;6.50;;;10.10;99.90;;;;;;5056262;28;20463;-90
2023/12/15 10:47:29;;;;;;;7.25;6.25;;;9.70;99.90;;;;;;5041535;28;20187;-90
2023/12/15 10:49:56;;;;;;;7.10;5.63;;;9.60;99.90;;;;;;5056017;28;20173;-90
2023/12/15 10:52:22;;;;;;;7.32;6.35;;;9.90;99.90;;;;;;5058329;28;20192;-90
2023/12/15 10:54:49;;;;;;;6.32;5.70;;;9.80;99.90;;;;;;5069475;28;20213;-90
2023/12/15 10:57:14;;;;;;;7.35;6.40;;;9.40;99.90;;;;;;5057171;28;20201;-91
2023/12/15 10:59:40;;;;;;;7.03;6.40;;;9.80;99.90;;;;;;5058598;28;20257;-90
2023/12/15 11:02:09;;;;;;;10.53;6.77;;;9.50;99.90;;;;;;5059067;28;20199;-90
2023/12/15 11:04:35;;;;;;;6.93;6.22;;;9.90;99.90;;;;;;5065109;28;20194;-90
2023/12/15 11:07:02;;;;;;;7.80;6.30;;;10.10;99.90;;;;;;5059274;28;20198;-90
2023/12/15 11:09:35;;;;;;;7.80;5.90;;;10.20;99.90;;;;;;5059935;28;20190;-90
2023/12/15 11:12:22;;;;;;;9.00;6.43;;;10.10;99.90;;;;;;5056211;28;20211;-90
2023/12/15 11:15:07;;;;;;;6.95;6.32;;;9.70;99.90;;;;;;5057464;28;20238;-90
2023/12/15 11:17:37;;;;;;;8.73;5.75;;;9.70;99.90;;;;;;5060079;28;20173;-90
2023/12/15 11:20:09;;;;;;;6.15;5.40;;;9.80;99.90;;;;;;5035538;28;20181;-90
2023/12/15 11:22:50;;;;;;;6.47;5.78;;;9.80;99.90;;;;;;5057228;28;20182;-90
2023/12/15 11:25:19;;;;;;;8.00;5.38;;;9.40;99.90;;;;;;5046144;28;20210;-90
2023/12/15 11:28:11;;;;;;;5.40;4.90;;;10.20;99.90;;;;;;5041645;28;20199;-90
2023/12/15 11:30:42;;;;;;;6.43;5.47;;;9.70;99.90;;;;;;5058450;28;20197;-90
2023/12/15 11:33:26;;;;;;;6.18;5.47;;;9.80;99.90;;;;;;5063665;28;20182;-90
2023/12/15 11:35:58;;;;;;;5.65;5.13;;;9.80;99.90;;;;;;5062722;28;20180;-90
2023/12/15 11:38:25;;;;;;;5.85;5.15;;;9.80;99.90;;;;;;5070222;28;20210;-90
2023/12/15 11:40:51;;;;;;;6.72;4.90;;;9.30;99.90;;;;;;5040485;28;20185;-90
2023/12/15 11:43:17;;;;;;;4.90;4.40;;;9.80;99.90;;;;;;5037514;28;20183;-90
2023/12/15 11:45:43;;;;;;;5.45;4.68;;;9.90;99.90;;;;;;5040777;28;20316;-90
2023/12/15 11:48:09;;;;;;;7.05;6.35;;;10.20;99.90;;;;;;5025056;28;20182;-90
2023/12/15 11:50:41;;;;;;;6.00;4.40;;;9.90;99.90;;;;;;5039677;28;20184;-90
2023/12/15 11:53:08;;;;;;;5.40;4.60;;;9.90;99.90;;;;;;5036740;28;20490;-90
2023/12/15 11:55:33;;;;;;;5.65;4.10;;;9.90;99.90;;;;;;5041348;28;20207;-90
2023/12/15 11:58:03;;;;;;;6.40;4.80;;;9.10;99.90;;;;;;5038496;28;20233;-91
2023/12/15 12:00:31;;;;;;;5.90;4.20;;;10.10;99.90;;;;;;5039958;28;20656;-90
2023/12/15 12:02:56;;;;;;;4.90;4.30;;;9.70;99.90;;;;;;5043986;28;20210;-90
2023/12/15 12:05:22;;;;;;;5.50;4.50;;;9.70;99.90;;;;;;5043917;28;20313;-90
2023/12/15 12:07:48;;;;;;;5.10;4.47;;;9.90;99.90;;;;;;5044777;28;20445;-90
2023/12/15 12:10:14;;;;;;;5.00;4.50;;;10.40;99.90;;;;;;5048575;28;20448;-90
2023/12/15 12:12:40;;;;;;;4.47;4.07;;;10.40;99.90;;;;;;5055438;28;20195;-90
2023/12/15 12:15:09;;;;;;;4.40;4.00;;;10.70;99.90;;;;;;5052550;28;20450;-91
2023/12/15 12:17:38;;;;;;;7.90;4.25;;;10.50;99.90;;;;;;5036386;28;20321;-91
2023/12/15 12:20:06;;;;;;;5.13;4.63;;;10.10;99.90;;;;;;5033650;28;20238;-91
2023/12/15 12:22:42;;;;;;;4.15;3.80;;;9.90;99.90;;;;;;5039965;28;20209;-90
2023/12/15 12:25:11;;;;;;;4.88;4.38;;;10.20;99.90;;;;;;5025280;28;20744;-90
2023/12/15 12:27:37;;;;;;;5.63;4.53;;;10.00;99.90;;;;;;5033453;28;20235;-91
2023/12/15 12:30:10;;;;;;;4.63;4.13;;;9.90;99.90;;;;;;5039522;28;20557;-90
2023/12/15 12:32:36;;;;;;;4.40;3.88;;;9.90;99.90;;;;;;5048283;28;20184;-91
2023/12/15 12:35:03;;;;;;;6.70;4.60;;;9.40;99.90;;;;;;5043319;28;20205;-90
2023/12/15 12:37:29;;;;;;;4.90;4.40;;;10.10;99.90;;;;;;5041480;28;20539;-90
2023/12/15 12:39:55;;;;;;;5.53;4.15;;;9.70;99.90;;;;;;5048196;28;20232;-90
2023/12/15 12:42:21;;;;;;;4.20;3.70;;;9.80;99.90;;;;;;5044141;28;20240;-90
2023/12/15 12:44:47;;;;;;;3.95;3.55;;;9.70;99.90;;;;;;5052999;28;20215;-90
2023/12/15 12:47:14;;;;;;;5.10;3.93;;;10.20;99.90;;;;;;5036469;28;20214;-90
2023/12/15 12:49:39;;;;;;;5.03;3.95;;;9.80;99.90;;;;;;5034930;28;20183;-90
2023/12/15 12:52:05;;;;;;;5.77;3.80;;;10.00;99.90;;;;;;5055127;28;20257;-90